Terminal Aerodrome Forecast
Issued by NWS Sioux Falls, SD

Home | Current Version | Previous Version | Graphics & Text | Print | Product List | Glossary Off
Versions: 1 2 3 4 5 6 7 8 9 10 11 12 13 14 15 16 17 18 19 20 21 22 23 24

717
FTUS43 KFSD 132340
TAFFSD
TAF
KFSD 132340Z 1400/1424 18008KT P6SM VCTS SCT025CB BKN060
      TEMPO 1400/1402 4SM TSRA BKN020CB
     FM140300 18005KT P6SM SCT035
     FM140900 VRB03KT 3SM BR SCT015
     FM141400 36005KT P6SM SCT025
     FM141700 02005KT P6SM SCT140=

USA.gov is the U.S. government's official web portal to all federal, state and local government web resources and services.